Timeline UpdatesTrip UpdatesNews PostsPvt PostsTravel TipsAdmin PostsConv PostsFollowed PostsChat RequestsBlog PostsPNR Posts

Disclaimer
Search
 
 
Fri Aug 1, 2014 19:25:07 ISTHomeTrainsΣChainsAtlasPNRForumGalleryNewsFAQTripsMembersLoginFeedback
Latest...
.
Tue Nov 19, 2013 (11:56PM)
⇐ Return Journey: Train# 16859

16108⇒16860/Mangalore - Chennai Egmore Express

Nov 01 2013 (5:47AM)
Change Departure Station:
Change Arrival Station:
Post a Train Travel TipPost a Train Travel Tip **new
Post a Comment/Question/Picture/VideoPost a Comment/Question/Picture/Video
Inaugural Run
Wed Jul 02, 2003
Pantry/Catering
✕ NO Pantry Car
✓ Catering Avbl
Loco/Rake Reversals
TPJ/Tiruchchirappalli Junction (8);
RSA - Rake Sharing
16853/16854 Cholan Express
Rake/Coach Composition
MAQ to TPJ; Loco-SLR-GS-GS-S10-S9-S8-S7-S6-S5-S4-S3-S2-S1-D3-D2-D1-B2-B1-HA1-GS-SLR.; TPJ to MS; Loco-SLR-GS-HA1-B1-B2-D1-D2-D3-S1-S2-S3-S4-S5-S6-S7-S8-S9-S10-GS-GS-SLR.
Loco
GOC WDP 4D from MAQ - TPJ; ED/RPM WAP-4 from...
Read more...
TPJ-MAS Entry# 894390
News    PNR    Forum    Time-Table    Availability    Fare Chart    Map    Arr/Dep History    Trips    Gallery    ΣChains    X/O    Timeline    
Travel Time: 22h 15m    51 halts    Distance: 986 km    Avg Speed: 44 km/hr
Type: Mail/Express
Zone: SR/Southern
Departs @ 06:50 (Avg on time)
Platform# 1
SMTWTFS
Mangalore Central/MAQ 
Arrives @ 05:05 +1 night (Avg 3m late)
Platform# 8
SMTWTFS
Chennai Egmore/MS 

51 halts. 187 intermediate Stations between Mangalore Central and Chennai Egmore

Show ALL intermediate Stations  Show Old Time-Table

#CodeStation NameX/OArrivesAvgDepartsAvgHaltPFDay#KmSpeedElevZoneAddress
1MAQ»Mangalore Central (4)»  -06:50+0110.04014mSRMangalore 575001, Karnataka
2MJSManjeshwar (3)  07:15+207:16+31m--116.86312mSRManjeshwar, Kerala
3KMQKumbala (2)X  07:32+407:33+41m--133.59223mSRKumbla, Kerala
4KGQKasaragod (3)  07:41+707:43+72m--145.75718mSRTel: 04994 220800, Kerala
5KQKKottikkulam (2)  07:53+807:54+81m--155.29125mSRBekal, Kerala
6KZEKanhangad (3)  08:03+1208:05+122m--168.86215mSRKanhangad, Kerala
7NLENileshwar (2)  08:14+1408:15+141m--178.14512mSRNileswaram, Kerala
8CHVCharvattur (3)X  08:22+1408:23+151m--183.47414mSRKasaragod district, Kerala
9PAYPayyanur (3)X  08:35+1408:37+142m--198.1700mSRKannur District, Kerala
10PAZPayangadi (2)  08:47+1508:48+161m21109.85612mSRKannur District, Kerala
11KPQKannapuram (2)  08:56+1608:57+161m21117.3319mSRKannur District, Kerala
12CANKannur Main (3)X  09:25+309:30+55m11131.86514mSRKannur Tel: 0497 2705555, Kerala
13TLYThalassery (2)X  09:49+509:51+62m--1152.4559mSRKannur, Kerala
14MAHEMahe (2)  10:01+610:03+82m--1161.77716mSRMahe, Puducherry
15BDJVadakara (2)X  10:13+910:15+112m11174.67311mSRCalicut / Station Ph No : 0496-2524254, Kerala
16QLDKoyilandy (3)  10:33+1410:34+151m--1196.54111mSRQuilandi, Kerala
17CLTKozhikode Main (4)  11:10+411:15+75m11220.84311mSRCalicut Tel: 0495 2701234, Kerala
18FKFerok (2)  11:29+911:30+101m--1230.84019mSRFeroke, Kerala
19KNKadalundi (2)  11:37+1211:38+121m--1235.5708mSRKozhikode district, Kerala
20PGIParappangadi (2)X  11:47+1411:48+151m--1246.05419mSRParappanangadi, Kerala
21TATanur (3)X  11:57+1511:58+161m--1254.16011mSRMalappuram, Kerala
22TIRTirur (3)  12:06+1512:08+162m--1262.1509mSRTel: 0494 2422240, Kerala
23KTUKuttippuram (2)  12:26+1612:28+162m21277.16217mSRKuttippuram, Kerala
24PTBPattambi (2)  12:46+1612:47+171m--1295.61821mSRPattambi, Kerala
25SRRShoranur Junction (7)  13:25+113:30+105m41307.15926mSRShoranur ph.no 0466-2222913, Kerala
26OTPOttappalam (2)  13:43+1313:45+132m--1320.04730mSROttapalam, Kerala
27PGTPalakkad Junction (4)X  14:25+214:30+75m--1351.54884mSRPalghat Tel: 0491 2555231, Kerala
28PTJPodanur Junction (4)  15:32+315:35+43m--1401.329400mSRPodanur jtn ph.no. 0422-2410784, Tamil Nadu
29CBECoimbatore Main Junction (6)  15:47+615:50+93m51407.218416mSRCoimbatore 641001, Tamil Nadu
30CBFCoimbatore North (2)  15:59+1016:00+101m21409.844431mSRCoimbatore 641012, Tamil Nadu
31PLMDPilamedu (3)  16:09+1116:10+121m--1416.475420mSRPilamedu ph.no. 0422-2572333, Tamil Nadu
32TUPTiruppur (2)X  16:43+1716:45+172m21457.859305mSRTiruppur. Ph:0421-2200450, Tamil Nadu
33UKLUttukuli (2)X  16:59+2117:00+241m--1471.540300mSRUthukuli ph.no. 04294-260213, Tamil Nadu
34EDErode Junction (4)X  17:55+518:05+1910m11507.767175mSRErode ph.no: 0424-2256111, Tamil Nadu
35URLUnjalurX  18:34+2118:35+221m--1540.2390mSRUnjalur ph.no. 04204-266131, Tamil Nadu
36KMDKodumudi (1)  18:44+2218:45+261m11546.152133mSRKodumudi, Tamil Nadu
37PGRPugalur (1)  18:59+2719:00+281m11558.221156mSRKarur, Tamil Nadu
38MPLMMoorthipalayam  19:14+2519:15+251m--1563.114159mSRErode - Unjalur - Kodumudi - Karur Rd, Tamil Nadu
39KRRKarur Junction (5)  19:55+020:00+35m--1572.669121mSRKarur Junction ph.no . 04324-274106, Tamil Nadu
40MMHMahadanapuram  20:22+820:23+91m--1598.156104mSRMahadanapuram ph.no. 04323-242790, Tamil Nadu
41KLTKulitalai (1)  20:38+1020:40+122m11612.0450mSRKulithalai ph.no. 04323-222079, Tamil Nadu
42TPTiruchirappalli Fort (3)  21:24+1321:25+141m11645.2977mSRTiruchchirapalli fort ph.no. 0431-2704175, Tamil Nadu
43TPJTiruchchirappalli Junction (8)↵¶21:50+222:00+810m31649.04585mSRTiruchchirapalli ph.no.0431-2413363, Tamil Nadu
44SRGMSrirangam (2)  22:16+1822:18+222m11660.97669mSRTiruchirapalli, Tamil Nadu
45ALUAriyalur (2)X  23:04+2623:05+291m21718.84470mSRAriyalur, Tamil Nadu
46VRIVriddhachalam Junction (4)X  00:18+2200:20+252m42772.54245mSRVriddhachalam ph.no. 04143-263767, Tamil Nadu
47VMVillupuram Junction (6)  01:38+1101:40+122m12827.25144mSRTrain Arrival / Departure Details : 04146 - 242781, Tamil Nadu
48TMVTindivanam (2)  02:24+2702:25+281m--2864.46547mSRTindivanam, Tamil Nadu
49MLMRMelmaruvathur (4)  02:53+2902:55+292m22894.65050mSRMelmaruvathur, Tamil Nadu
50CGLChengalpattu Junction (8)  03:38+2203:40+222m52930.16641mSRKanchipuram, Tamil Nadu
51TBMTambaram (8)  04:08+2304:10+222m52960.96032mSRTambaram., Tamil Nadu
52MBMMambalam (4)  04:28+1404:30+132m32978.91213mSRChennai, Tamil Nadu
53MS•Chennai Egmore (11)•  05:05+3-82985.6-8mSRChennai Ph No: 044-28194579, Tamil Nadu
Scroll to Top
Scroll to Bottom